TimeEDT,TemperatureF,Dew PointF,Humidity,Sea Level PressureIn,VisibilityMPH,Wind Direction,Wind SpeedMPH,Gust SpeedMPH,PrecipitationIn,Events,Conditions,WindDirDegrees,DateUTC
12:53 AM,71.1,70.0,96,30.11,5.0,WSW,4.6,-,N/A,,Partly Cloudy,240,2013-07-16 04:53:00
1:53 AM,71.1,70.0,96,30.10,5.0,WSW,4.6,-,N/A,,Scattered Clouds,240,2013-07-16 05:53:00
2:53 AM,71.1,70.0,96,30.09,4.0,Calm,Calm,-,N/A,,Clear,0,2013-07-16 06:53:00
3:10 AM,69.8,68.0,94,30.09,2.5,WSW,3.5,-,N/A,,Clear,250,2013-07-16 07:10:00
3:41 AM,71.6,69.8,94,30.08,5.0,West,3.5,-,N/A,,Partly Cloudy,270,2013-07-16 07:41:00
3:53 AM,69.1,69.1,100,30.08,4.0,Calm,Calm,-,N/A,,Clear,0,2013-07-16 07:53:00
4:04 AM,69.8,68.0,94,30.08,2.0,Calm,Calm,-,N/A,,Clear,0,2013-07-16 08:04:00
4:19 AM,71.6,69.8,94,30.08,6.0,WNW,4.6,-,N/A,,Clear,290,2013-07-16 08:19:00
4:53 AM,73.0,70.0,90,30.08,9.0,NW,5.8,-,N/A,,Clear,320,2013-07-16 08:53:00
5:53 AM,75.0,72.0,90,30.09,9.0,NNW,8.1,-,N/A,,Clear,330,2013-07-16 09:53:00
6:53 AM,77.0,70.0,79,30.11,10.0,North,10.4,-,N/A,,Clear,350,2013-07-16 10:53:00
7:53 AM,78.1,68.0,71,30.11,10.0,North,12.7,-,N/A,,Partly Cloudy,350,2013-07-16 11:53:00
8:53 AM,80.1,66.9,64,30.12,10.0,North,16.1,-,N/A,,Partly Cloudy,360,2013-07-16 12:53:00
9:53 AM,82.0,68.0,62,30.12,10.0,North,16.1,-,N/A,,Clear,360,2013-07-16 13:53:00
10:53 AM,84.0,66.9,56,30.12,10.0,NNE,16.1,-,N/A,,Clear,20,2013-07-16 14:53:00
11:53 AM,84.9,66.9,55,30.11,10.0,North,9.2,-,N/A,,Clear,360,2013-07-16 15:53:00
12:53 PM,84.9,66.9,55,30.12,10.0,North,11.5,-,N/A,,Clear,10,2013-07-16 16:53:00
1:53 PM,86.0,66.9,53,30.11,10.0,North,10.4,-,N/A,,Clear,10,2013-07-16 17:53:00
2:53 PM,82.9,68.0,60,30.12,10.0,NNE,11.5,-,N/A,,Clear,20,2013-07-16 18:53:00
3:53 PM,82.9,68.0,60,30.11,10.0,NE,9.2,-,N/A,,Clear,40,2013-07-16 19:53:00
4:53 PM,82.9,66.9,58,30.12,10.0,North,10.4,-,N/A,,Clear,10,2013-07-16 20:53:00
5:53 PM,81.0,66.0,60,30.11,10.0,NNE,9.2,-,N/A,,Clear,30,2013-07-16 21:53:00
6:53 PM,78.1,64.0,62,30.12,10.0,NNE,10.4,-,N/A,,Clear,30,2013-07-16 22:53:00
7:53 PM,73.9,66.0,76,30.13,10.0,North,5.8,-,N/A,,Clear,350,2013-07-16 23:53:00
8:53 PM,73.0,66.9,81,30.14,10.0,NNW,4.6,-,N/A,,Clear,340,2013-07-17 00:53:00
9:53 PM,71.1,66.9,87,30.15,10.0,North,3.5,-,N/A,,Clear,10,2013-07-17 01:53:00
10:53 PM,71.1,64.9,81,30.15,10.0,NNE,4.6,-,N/A,,Clear,20,2013-07-17 02:53:00
11:53 PM,69.1,63.0,81,30.15,10.0,North,4.6,-,N/A,,Clear,10,2013-07-17 03:53:00